Time;durP1;ratioP1;P1;durP2;ratioP2;P2;SDS_P1;SDS_P2;PMS_P1;PMS_P2;Temp;Humidity;BMP_temperature;BMP_pressure;BME280_temperature;BME280_humidity;BME280_pressure;Samples;Min_cycle;Max_cycle;Signal;HPM_P1;HPM_P2
2022/12/26 00:01:09;;;;;;;34.87;14.40;;;;;;;6.86;100.00;100295.80;1685173;82;21028;-73
2022/12/26 00:03:37;;;;;;;29.63;12.83;;;;;;;6.87;100.00;100277.11;1712027;83;21076;-73
2022/12/26 00:06:07;;;;;;;28.23;12.73;;;;;;;6.87;100.00;100288.84;1712151;83;21001;-76
2022/12/26 00:08:34;;;;;;;38.10;15.03;;;;;;;6.88;100.00;100280.16;1703258;83;21005;-73
2022/12/26 00:11:01;;;;;;;30.90;13.60;;;;;;;6.88;100.00;100292.73;1707116;82;22021;-72
2022/12/26 00:13:29;;;;;;;36.90;15.37;;;;;;;6.88;100.00;100295.78;1702353;82;21526;-74
2022/12/26 00:15:56;;;;;;;39.20;14.73;;;;;;;6.90;100.00;100298.77;1662989;83;21509;-73
2022/12/26 00:18:23;;;;;;;38.90;15.50;;;;;;;6.92;100.00;100303.47;1667601;83;21111;-73
2022/12/26 00:20:50;;;;;;;37.50;16.00;;;;;;;6.94;100.00;100298.23;1704789;83;21453;-72
2022/12/26 00:23:17;;;;;;;34.87;14.53;;;;;;;6.95;100.00;100304.30;1711125;83;21114;-73
2022/12/26 00:25:45;;;;;;;32.67;13.50;;;;;;;6.97;100.00;100305.13;1697466;83;21047;-73
2022/12/26 00:28:12;;;;;;;27.40;12.57;;;;;;;6.96;100.00;100293.00;1696450;83;21064;-73
2022/12/26 00:30:40;;;;;;;34.37;14.93;;;;;;;6.97;100.00;100281.22;1685922;83;21067;-73
2022/12/26 00:33:07;;;;;;;34.27;15.00;;;;;;;6.96;100.00;100277.37;1675324;84;21506;-73
2022/12/26 00:35:35;;;;;;;39.60;15.03;;;;;;;6.95;100.00;100282.16;1688591;84;21127;-73
2022/12/26 00:38:02;;;;;;;30.57;13.13;;;;;;;6.93;100.00;100292.17;1719984;83;21007;-73
2022/12/26 00:40:29;;;;;;;39.73;15.43;;;;;;;6.90;100.00;100298.77;1717623;83;21012;-73
2022/12/26 00:42:56;;;;;;;47.13;21.17;;;;;;;6.89;100.00;100294.87;1712288;83;21067;-76
2022/12/26 00:45:23;;;;;;;58.80;29.43;;;;;;;6.87;100.00;100292.33;1706873;83;21461;-73
2022/12/26 00:47:50;;;;;;;94.50;40.53;;;;;;;6.86;100.00;100280.63;1706752;83;21155;-73
2022/12/26 00:50:17;;;;;;;58.63;21.83;;;;;;;6.85;100.00;100288.89;1711241;82;20909;-74
2022/12/26 00:52:44;;;;;;;34.67;15.17;;;;;;;6.83;100.00;100294.58;1712510;83;21525;-73
2022/12/26 00:55:11;;;;;;;29.50;13.83;;;;;;;6.83;100.00;100288.52;1698138;83;21040;-72
2022/12/26 00:57:38;;;;;;;29.10;13.60;;;;;;;6.80;100.00;100291.20;1704222;84;20995;-72
2022/12/26 01:00:07;;;;;;;30.03;14.63;;;;;;;6.80;100.00;100290.74;1708349;83;21798;-72
2022/12/26 01:02:38;;;;;;;23.03;11.40;;;;;;;6.79;100.00;100286.44;1714272;83;20878;-72
2022/12/26 01:05:10;;;;;;;21.07;11.07;;;;;;;6.78;100.00;100282.55;1741498;81;21108;-73
2022/12/26 01:07:38;;;;;;;16.07;9.30;;;;;;;6.76;100.00;100296.05;1764629;81;25603;-73
2022/12/26 01:10:08;;;;;;;16.57;9.90;;;;;;;6.75;100.00;100301.71;1764294;81;21060;-73
2022/12/26 01:12:35;;;;;;;17.67;9.37;;;;;;;6.74;100.00;100303.06;1764486;81;21097;-76
2022/12/26 01:15:02;;;;;;;16.53;9.37;;;;;;;6.74;100.00;100292.20;1764208;81;21029;-73
2022/12/26 01:17:29;;;;;;;16.03;8.80;;;;;;;6.74;100.00;100283.53;1764255;81;21096;-73
2022/12/26 01:19:57;;;;;;;17.03;9.70;;;;;;;6.73;100.00;100277.89;1760278;81;21575;-74
2022/12/26 01:22:25;;;;;;;16.77;9.97;;;;;;;6.72;100.00;100269.23;1764509;81;21550;-73
2022/12/26 01:24:57;;;;;;;14.87;9.17;;;;;;;6.73;100.00;100276.14;1764248;81;21073;-73
2022/12/26 01:27:25;;;;;;;16.53;8.87;;;;;;;6.74;100.00;100273.96;1757288;81;21024;-73
2022/12/26 01:29:53;;;;;;;15.23;8.70;;;;;;;6.75;100.00;100263.09;1761426;81;21034;-73
2022/12/26 01:32:22;;;;;;;14.90;9.57;;;;;;;6.77;100.00;100262.61;1761926;81;21601;-73
2022/12/26 01:34:51;;;;;;;13.90;8.63;;;;;;;6.75;100.00;100258.73;1771135;80;21485;-74
2022/12/26 01:37:18;;;;;;;15.30;9.57;;;;;;;6.74;100.00;100259.64;1752630;80;21152;-73
2022/12/26 01:39:45;;;;;;;17.03;10.40;;;;;;;6.74;100.00;100258.78;1740889;80;20989;-72
2022/12/26 01:42:15;;;;;;;15.17;8.73;;;;;;;6.73;100.00;100256.59;1746577;80;21095;-72
2022/12/26 01:44:59;;;;;;;16.87;9.38;;;;;;;6.70;100.00;100248.41;1768239;80;28165;-72
2022/12/26 01:47:50;;;;;;;12.50;8.30;;;;;;;6.68;100.00;100246.77;1744598;81;21003;-75
2022/12/26 01:50:37;;;;;;;;;;;;;;;6.69;100.00;100254.52;1774207;80;21084;-72
2022/12/26 01:53:15;;;;;;;17.27;8.70;;;;;;;6.67;100.00;100251.09;1760475;79;20201;-72
2022/12/26 01:55:47;;;;;;;15.50;8.87;;;;;;;6.68;100.00;100251.52;1775486;79;20999;-73
2022/12/26 01:58:20;;;;;;;14.17;8.33;;;;;;;6.69;100.00;100234.14;1739034;79;20892;-72
2022/12/26 02:00:48;;;;;;;14.83;8.70;;;;;;;6.69;100.00;100229.78;1744741;80;21035;-74
2022/12/26 02:06:02;;;;;;;27.20;13.83;;;;;;;6.71;100.00;100221.94;1748008;80;21031;-73
2022/12/26 02:08:34;;;;;;;103.47;40.47;;;;;;;6.71;100.00;100212.83;1750431;80;22166;-72
2022/12/26 02:11:18;;;;;;;24.50;12.57;;;;;;;6.70;100.00;100223.66;1744186;79;20992;-73
2022/12/26 02:13:45;;;;;;;23.13;10.20;;;;;;;6.73;100.00;100230.55;1766429;80;21030;-73
2022/12/26 02:16:16;;;;;;;17.47;9.03;;;;;;;6.74;100.00;100216.66;1757378;80;21920;-73
2022/12/26 02:18:44;;;;;;;16.97;8.33;;;;;;;6.75;100.00;100213.15;1756900;80;20988;-73
2022/12/26 02:21:48;;;;;;;14.43;8.63;;;;;;;6.75;100.00;100210.54;1755412;79;21513;-74
2022/12/26 02:24:49;;;;;;;17.77;8.73;;;;;;;6.76;100.00;100208.37;1754198;80;21019;-72
2022/12/26 02:27:47;;;;;;;12.70;8.00;;;;;;;6.80;100.00;100201.33;1749820;80;21003;-73
2022/12/26 02:30:31;;;;;;;17.37;9.20;;;;;;;6.83;100.00;100183.01;1772599;80;21492;-75
2022/12/26 02:33:06;;;;;;;16.03;8.37;;;;;;;6.84;100.00;100180.34;1739572;80;21090;-73
2022/12/26 02:35:47;;;;;;;12.83;7.60;;;;;;;6.87;100.00;100176.39;1758609;80;21012;-73
2022/12/26 02:39:13;;;;;;;12.30;7.40;;;;;;;6.91;100.00;100175.40;1785294;79;20999;-76
2022/12/26 02:42:14;;;;;;;12.83;7.60;;;;;;;6.95;100.00;100186.59;1763299;80;21439;-76
2022/12/26 02:47:37;;;;;;;13.70;7.63;;;;;;;6.96;100.00;100200.50;1755059;79;21046;-72
2022/12/26 03:13:23;;;;;;;14.03;8.00;;;;;;;7.10;100.00;100134.09;1777074;80;21148;-73
2022/12/26 03:18:52;;;;;;;13.83;8.07;;;;;;;7.19;100.00;100117.33;1756655;80;21094;-73
2022/12/26 03:21:24;;;;;;;12.23;8.00;;;;;;;7.22;100.00;100134.19;1762854;80;20965;-73
2022/12/26 03:23:53;;;;;;;13.33;8.20;;;;;;;7.27;100.00;100133.62;1764452;79;21268;-73
2022/12/26 03:26:42;;;;;;;14.50;8.70;;;;;;;7.31;100.00;100130.47;1735158;80;21955;-74
2022/12/26 03:32:01;;;;;;;43.43;18.00;;;;;;;7.35;100.00;100134.72;1776787;80;20972;-72
2022/12/26 03:34:29;;;;;;;30.63;12.03;;;;;;;7.37;100.00;100135.50;1765830;79;21059;-73
2022/12/26 03:37:16;;;;;;;15.03;8.50;;;;;;;7.38;100.00;100128.11;1765077;80;21058;-73
2022/12/26 04:19:28;;;;;;;12.40;8.33;;;;;;;7.49;100.00;100133.02;1675065;82;21041;-76
2022/12/26 04:45:20;;;;;;;13.73;8.67;;;;;;;7.43;100.00;100127.53;1768983;81;21164;-73
2022/12/26 04:50:36;;;;;;;15.10;9.77;;;;;;;7.44;100.00;100124.47;1760145;81;21091;-73
2022/12/26 04:53:03;;;;;;;14.73;8.57;;;;;;;7.46;100.00;100122.69;1768900;81;21173;-73
2022/12/26 04:55:34;;;;;;;14.83;8.97;;;;;;;7.47;100.00;100129.14;1731526;81;21081;-76
2022/12/26 04:58:03;;;;;;;12.17;8.63;;;;;;;7.49;100.00;100136.94;1733868;81;21047;-74
2022/12/26 05:00:30;;;;;;;13.13;8.60;;;;;;;7.50;100.00;100125.59;1736623;81;20936;-74
2022/12/26 05:11:32;;;;;;;11.87;8.30;;;;;;;7.47;100.00;100118.71;1735158;80;21472;-73
2022/12/26 05:13:59;;;;;;;10.63;7.97;;;;;;;7.47;100.00;100120.02;1766778;79;20999;-72
2022/12/26 05:30:24;;;;;;;13.53;9.40;;;;;;;7.51;100.00;100138.61;1758134;80;20974;-72
2022/12/26 05:35:38;;;;;;;13.23;9.43;;;;;;;7.49;100.00;100140.84;1782290;78;21246;-76
2022/12/26 05:38:07;;;;;;;11.27;8.07;;;;;;;7.48;100.00;100137.81;1781578;80;20993;-72
2022/12/26 05:40:35;;;;;;;11.80;8.87;;;;;;;7.47;100.00;100133.51;1764286;80;21426;-72
2022/12/26 05:43:03;;;;;;;11.33;8.80;;;;;;;7.44;100.00;100141.42;1757997;80;21031;-75
2022/12/26 05:45:29;;;;;;;11.63;8.73;;;;;;;7.44;100.00;100150.55;1782401;80;21963;-73
2022/12/26 05:48:00;;;;;;;11.63;9.17;;;;;;;7.42;100.00;100147.12;1762306;80;20900;-73
2022/12/26 05:50:27;;;;;;;13.60;9.67;;;;;;;7.41;100.00;100147.58;1782519;80;21446;-73
2022/12/26 05:52:58;;;;;;;11.03;8.33;;;;;;;7.41;100.00;100147.58;1779610;80;21971;-73
2022/12/26 05:55:26;;;;;;;16.67;9.20;;;;;;;7.41;100.00;100144.12;1751579;80;21017;-72
2022/12/26 05:57:53;;;;;;;12.17;8.93;;;;;;;7.39;100.00;100150.67;1741034;80;21858;-76
2022/12/26 06:00:20;;;;;;;13.03;9.40;;;;;;;7.37;100.00;100140.72;1730312;80;21015;-72
2022/12/26 06:02:50;;;;;;;11.90;8.60;;;;;;;7.34;100.00;100143.00;1742182;80;21037;-72
2022/12/26 06:05:18;;;;;;;12.82;8.95;;;;;;;7.32;100.00;100140.02;1777232;80;21582;-72
2022/12/26 06:07:45;;;;;;;12.43;8.83;;;;;;;7.30;100.00;100148.33;1760643;80;21269;-72
2022/12/26 06:10:13;;;;;;;13.60;9.23;;;;;;;7.28;100.00;100151.41;1773541;80;21929;-75
2022/12/26 06:12:39;;;;;;;13.73;8.83;;;;;;;7.23;100.00;100154.14;1782528;80;21532;-72
2022/12/26 06:15:08;;;;;;;14.50;8.87;;;;;;;7.21;100.00;100156.41;1748339;80;21491;-73
2022/12/26 06:17:35;;;;;;;12.33;9.33;;;;;;;7.16;100.00;100163.03;1781243;80;20988;-72
2022/12/26 06:20:03;;;;;;;13.90;9.57;;;;;;;7.14;100.00;100163.52;1782344;80;21381;-72
2022/12/26 06:22:30;;;;;;;11.70;8.97;;;;;;;7.10;100.00;100164.05;1782493;80;21113;-73
2022/12/26 06:24:57;;;;;;;13.07;9.13;;;;;;;7.09;100.00;100155.81;1778044;80;20991;-72
2022/12/26 06:27:24;;;;;;;13.20;7.80;;;;;;;7.06;100.00;100152.44;1782243;80;21003;-72
2022/12/26 06:29:51;;;;;;;12.90;8.43;;;;;;;7.04;100.00;100158.13;1771052;79;21047;-73
2022/12/26 06:32:18;;;;;;;11.07;7.83;;;;;;;7.02;100.00;100161.25;1758694;80;21468;-72
2022/12/26 06:34:46;;;;;;;10.87;7.50;;;;;;;7.02;100.00;100152.13;1780513;80;21125;-72
2022/12/26 06:37:13;;;;;;;11.40;7.73;;;;;;;7.10;100.00;100161.91;1768258;80;20923;-73
2022/12/26 06:39:40;;;;;;;10.07;6.70;;;;;;;7.20;100.00;100162.05;1765962;79;20927;-73
2022/12/26 06:42:08;;;;;;;12.90;7.07;;;;;;;7.29;100.00;100146.63;1776860;80;21042;-76
2022/12/26 06:44:35;;;;;;;9.13;6.50;;;;;;;7.40;100.00;100139.36;1734622;80;21098;-74
2022/12/26 06:47:02;;;;;;;8.10;6.07;;;;;;;7.48;100.00;100140.00;1753695;80;21167;-73
2022/12/26 06:49:29;;;;;;;9.43;6.03;;;;;;;7.62;100.00;100137.00;1767394;80;21016;-72
2022/12/26 06:51:56;;;;;;;10.10;5.97;;;;;;;7.73;100.00;100134.92;1751121;79;21070;-76
2022/12/26 06:54:24;;;;;;;7.37;5.03;;;;;;;7.88;100.00;100131.45;1737292;80;21049;-76
2022/12/26 06:56:57;;;;;;;9.93;6.13;;;;;;;8.00;100.00;100120.16;1760358;80;21270;-78
2022/12/26 06:59:24;;;;;;;7.40;4.93;;;;;;;8.13;100.00;100136.77;1762815;80;21955;-73
2022/12/26 07:01:51;;;;;;;8.83;5.07;;;;;;;8.26;100.00;100140.25;1751843;80;21008;-74
2022/12/26 07:04:18;;;;;;;7.33;4.87;;;;;;;8.36;100.00;100144.71;1769925;80;21055;-71
2022/12/26 07:06:45;;;;;;;7.00;4.53;;;;;;;8.45;100.00;100138.37;1776276;80;20976;-77
2022/12/26 07:09:17;;;;;;;9.00;5.80;;;;;;;8.52;100.00;100150.34;1761966;80;21285;-74
2022/12/26 07:11:48;;;;;;;7.90;5.30;;;;;;;8.57;100.00;100133.22;1766415;80;21064;-75
2022/12/26 07:14:16;;;;;;;6.67;4.27;;;;;;;8.61;100.00;100134.81;1766981;80;21505;-72
2022/12/26 07:16:45;;;;;;;5.83;3.93;;;;;;;8.64;100.00;100140.78;1774331;79;21523;-73
2022/12/26 07:19:14;;;;;;;6.67;4.07;;;;;;;8.67;100.00;100145.05;1768004;80;21086;-82
2022/12/26 07:21:42;;;;;;;9.83;4.20;;;;;;;8.71;100.00;100144.06;1770703;80;20954;-79
2022/12/26 07:24:25;;;;;;;6.97;5.17;;;;;;;8.75;100.00;100144.80;1776504;80;22268;-73
2022/12/26 07:26:52;;;;;;;6.33;4.60;;;;;;;8.80;100.00;100141.59;1776626;80;21465;-71
2022/12/26 07:29:20;;;;;;;7.00;4.50;;;;;;;8.81;100.00;100148.08;1773178;79;20923;-78
2022/12/26 07:31:48;;;;;;;7.20;3.83;;;;;;;8.84;100.00;100151.89;1771985;80;21000;-76
2022/12/26 07:34:15;;;;;;;7.10;4.30;;;;;;;8.90;100.00;100165.20;1756601;79;21106;-74
2022/12/26 07:36:42;;;;;;;6.47;4.20;;;;;;;8.97;100.00;100166.69;1787533;80;21461;-72
2022/12/26 07:39:13;;;;;;;7.30;4.60;;;;;;;9.01;100.00;100156.55;1753527;79;21067;-78
2022/12/26 07:41:58;;;;;;;5.55;4.12;;;;;;;9.07;100.00;100148.48;1770080;80;21039;-84
2022/12/26 07:44:28;;;;;;;5.33;3.80;;;;;;;9.16;100.00;100151.22;1756489;80;21019;-78
2022/12/26 07:46:57;;;;;;;8.70;4.10;;;;;;;9.20;100.00;100148.04;1776600;80;21046;-77
2022/12/26 07:49:25;;;;;;;5.37;3.73;;;;;;;9.23;100.00;100140.08;1753216;80;21113;-71
2022/12/26 07:51:52;;;;;;;4.87;3.80;;;;;;;9.26;100.00;100140.84;1776450;80;21058;-72
2022/12/26 07:54:19;;;;;;;6.83;4.00;;;;;;;9.32;100.00;100153.70;1775535;79;20984;-71
2022/12/26 07:56:46;;;;;;;5.00;3.92;;;;;;;9.40;100.00;100147.35;1747992;80;21015;-71
2022/12/26 07:59:16;;;;;;;6.10;4.00;;;;;;;9.47;100.00;100162.75;1688083;84;21076;-73
2022/12/26 08:01:43;;;;;;;6.97;4.23;;;;;;;9.50;100.00;100163.09;1734906;82;22126;-72
2022/12/26 08:04:13;;;;;;;5.20;4.27;;;;;;;9.52;99.83;100179.59;1698432;83;21009;-71
2022/12/26 08:06:40;;;;;;;5.70;3.60;;;;;;;9.52;99.47;100175.67;1752908;80;21098;-72
2022/12/26 08:09:09;;;;;;;6.80;4.60;;;;;;;9.50;99.16;100175.71;1768564;80;21026;-72
2022/12/26 08:11:36;;;;;;;5.97;3.93;;;;;;;9.49;99.17;100177.94;1758627;80;20976;-72
2022/12/26 08:14:04;;;;;;;6.87;4.00;;;;;;;9.46;98.76;100184.59;1748917;79;21114;-74
2022/12/26 08:16:31;;;;;;;4.83;3.47;;;;;;;9.43;98.71;100184.70;1755727;80;21055;-88
2022/12/26 08:19:02;;;;;;;6.97;3.57;;;;;;;9.41;98.73;100186.52;1729157;80;21087;-83
2022/12/26 08:21:29;;;;;;;5.20;3.77;;;;;;;9.42;98.70;100186.05;1760710;80;20952;-78
2022/12/26 08:23:56;;;;;;;7.77;4.33;;;;;;;9.42;98.54;100193.45;1757301;79;21034;-84
2022/12/26 08:26:26;;;;;;;6.10;4.13;;;;;;;9.40;98.50;100195.28;1784293;79;21112;-78
2022/12/26 08:28:55;;;;;;;7.80;4.93;;;;;;;9.41;98.29;100191.75;1779354;79;21024;-76
2022/12/26 08:31:24;;;;;;;6.45;4.05;;;;;;;9.40;98.33;100190.05;1767248;80;21050;-77
2022/12/26 08:33:57;;;;;;;7.22;4.95;;;;;;;9.40;98.34;100191.36;1776273;80;21086;-79
2022/12/26 08:36:38;;;;;;;9.87;5.83;;;;;;;9.46;98.47;100188.98;1710809;82;21058;-76
2022/12/26 08:39:13;;;;;;;8.80;5.70;;;;;;;9.49;98.38;100183.17;1688510;83;21218;-89
2022/12/26 08:41:40;;;;;;;11.00;6.70;;;;;;;9.53;98.29;100191.33;1698978;82;21062;-76
2022/12/26 08:44:09;;;;;;;10.70;5.57;;;;;;;9.55;98.10;100186.02;1710904;83;21024;-73
2022/12/26 08:46:38;;;;;;;10.10;5.40;;;;;;;9.56;98.12;100185.98;1729207;82;21082;-74
2022/12/26 08:49:05;;;;;;;6.83;4.83;;;;;;;9.62;98.20;100182.28;1702173;82;20989;-74
2022/12/26 08:51:32;;;;;;;8.20;5.53;;;;;;;9.65;98.00;100193.95;1691465;83;21143;-85
2022/12/26 08:53:59;;;;;;;6.80;5.10;;;;;;;9.72;97.90;100185.41;1685283;83;21560;-86
2022/12/26 08:56:28;;;;;;;11.47;5.87;;;;;;;9.80;97.88;100188.59;1689604;83;21508;-92
2022/12/26 08:58:56;;;;;;;7.97;5.15;;;;;;;9.86;97.60;100183.58;1732474;82;21106;-82
2022/12/26 09:01:27;;;;;;;9.58;5.78;;;;;;;9.94;97.67;100201.16;1731010;82;21062;-86
2022/12/26 09:03:57;;;;;;;9.93;5.80;;;;;;;10.03;97.67;100205.62;1723294;81;21133;-80
2022/12/26 09:06:25;;;;;;;;;;;;;;;10.11;97.46;100214.92;1717866;81;21106;-75
2022/12/26 09:08:52;;;;;;;13.50;5.60;;;;;;;10.12;97.05;100225.36;1706622;82;20508;-75
2022/12/26 09:11:25;;;;;;;9.50;5.73;;;;;;;10.13;97.06;100219.20;1703700;84;21565;-76
2022/12/26 09:13:54;;;;;;;8.90;5.60;;;;;;;10.17;96.86;100226.47;1679975;85;21043;-69
2022/12/26 09:16:25;;;;;;;9.90;5.37;;;;;;;10.18;96.78;100226.89;1699072;83;21293;-68
2022/12/26 09:18:59;;;;;;;8.48;4.87;;;;;;;10.23;96.76;100235.43;1714371;83;21442;-73
2022/12/26 09:21:32;;;;;;;9.90;5.30;;;;;;;10.38;96.89;100219.59;1713078;82;21568;-70
2022/12/26 09:24:03;;;;;;;8.80;5.00;;;;;;;10.58;96.91;100213.56;1712651;83;21059;-77
2022/12/26 09:26:31;;;;;;;8.53;5.40;;;;;;;10.64;96.85;100218.12;1722172;82;21024;-74
2022/12/26 09:28:59;;;;;;;9.73;5.30;;;;;;;10.69;96.71;100209.59;1708809;83;22040;-74
2022/12/26 09:31:30;;;;;;;7.83;4.55;;;;;;;10.75;96.59;100215.04;1707482;82;21048;-86
2022/12/26 09:34:00;;;;;;;8.98;4.70;;;;;;;10.84;96.66;100209.91;1709075;83;21040;-69
2022/12/26 09:36:30;;;;;;;6.10;2.72;;;;;;;10.97;96.81;100222.88;1685300;82;21506;-70
2022/12/26 09:38:58;;;;;;;7.10;2.70;;;;;;;11.14;96.77;100219.55;1707103;83;21016;-70
2022/12/26 09:42:03;;;;;;;4.50;2.87;;;;;;;11.32;96.84;100205.66;1714147;83;21172;-70
2022/12/26 09:44:39;;;;;;;5.22;2.47;;;;;;;11.47;96.74;100198.88;1706894;82;21493;-69
2022/12/26 09:47:17;;;;;;;4.22;2.05;;;;;;;11.60;96.26;100188.70;1698666;83;21037;-69
2022/12/26 09:50:05;;;;;;;4.78;2.37;;;;;;;11.68;95.94;100203.65;1705324;83;21532;-70
2022/12/26 09:53:01;;;;;;;7.03;3.60;;;;;;;11.77;95.70;100218.13;1714454;83;21040;-70
2022/12/26 09:55:55;;;;;;;4.05;2.40;;;;;;;11.88;95.33;100222.47;1714221;82;21148;-70
2022/12/26 09:58:48;;;;;;;3.67;2.08;;;;;;;11.97;95.11;100218.57;1693210;82;21047;-70
2022/12/26 10:01:27;;;;;;;3.80;2.20;;;;;;;12.05;94.52;100217.33;1707060;83;21072;-70
2022/12/26 10:03:59;;;;;;;4.25;2.08;;;;;;;12.15;94.33;100196.72;1714301;82;21036;-69
2022/12/26 10:06:35;;;;;;;4.10;2.05;;;;;;;12.19;94.15;100195.67;1713557;82;21486;-69
2022/12/26 10:09:32;;;;;;;4.53;2.12;;;;;;;12.22;93.57;100192.02;1707027;82;21152;-71
2022/12/26 10:12:19;;;;;;;6.67;2.15;;;;;;;12.30;93.40;100184.62;1706079;83;21075;-70
2022/12/26 10:15:04;;;;;;;5.17;2.17;;;;;;;12.39;92.28;100182.89;1704856;83;21509;-70
2022/12/26 10:18:01;;;;;;;3.35;1.98;;;;;;;12.51;91.98;100193.27;1713826;82;20917;-70
2022/12/26 10:21:02;;;;;;;4.78;2.27;;;;;;;12.59;92.07;100166.14;1703492;82;21028;-72
2022/12/26 10:23:39;;;;;;;5.03;2.15;;;;;;;12.73;92.02;100161.52;1711686;83;21268;-71
2022/12/26 10:26:21;;;;;;;4.55;2.30;;;;;;;12.83;91.69;100154.00;1714223;83;20922;-71
2022/12/26 10:29:08;;;;;;;4.35;2.40;;;;;;;12.88;90.87;100158.57;1694646;82;21035;-71
2022/12/26 10:32:01;;;;;;;4.92;2.42;;;;;;;12.92;89.87;100162.30;1714288;82;21470;-71
2022/12/26 10:34:37;;;;;;;2.75;2.00;;;;;;;12.92;89.78;100164.08;1686408;83;21009;-71
2022/12/26 10:37:12;;;;;;;2.90;2.08;;;;;;;12.90;89.63;100177.30;1691290;83;21147;-71
2022/12/26 10:39:57;;;;;;;3.87;2.42;;;;;;;12.91;89.52;100174.20;1719374;83;21055;-71
2022/12/26 10:42:40;;;;;;;3.85;2.10;;;;;;;12.93;89.42;100192.92;1772891;80;21476;-70
2022/12/26 10:45:44;;;;;;;2.90;1.70;;;;;;;12.97;89.09;100190.14;1771284;80;21010;-71
2022/12/26 10:48:13;;;;;;;3.95;1.92;;;;;;;12.99;89.26;100189.14;1776797;80;20984;-71
2022/12/26 10:50:47;;;;;;;3.67;2.20;;;;;;;13.02;89.15;100185.03;1777156;80;21208;-71
2022/12/26 10:53:16;;;;;;;4.85;2.33;;;;;;;13.03;88.17;100181.49;1763698;79;21011;-71
2022/12/26 10:55:44;;;;;;;4.72;2.17;;;;;;;13.03;87.71;100180.17;1737452;80;21027;-70
2022/12/26 10:58:29;;;;;;;3.58;2.10;;;;;;;13.06;88.18;100181.33;1770443;79;20999;-71
2022/12/26 11:00:59;;;;;;;3.15;2.20;;;;;;;13.08;87.95;100168.95;1776105;79;21451;-70
2022/12/26 11:03:26;;;;;;;3.10;1.98;;;;;;;13.09;87.63;100158.80;1737528;79;21066;-71
2022/12/26 11:05:55;;;;;;;3.80;2.02;;;;;;;13.12;87.45;100156.02;1741952;80;21043;-70
2022/12/26 11:08:49;;;;;;;4.62;1.77;;;;;;;13.19;87.17;100171.05;1777508;80;20977;-71
2022/12/26 11:11:47;;;;;;;3.20;1.90;;;;;;;13.26;87.18;100175.55;1776948;80;20984;-71
2022/12/26 11:14:39;;;;;;;3.15;2.00;;;;;;;13.33;87.22;100169.89;1776494;79;20995;-71
2022/12/26 11:17:29;;;;;;;5.28;1.95;;;;;;;13.39;87.05;100168.24;1776884;80;21126;-71
2022/12/26 11:20:23;;;;;;;3.37;1.90;;;;;;;13.47;86.69;100163.91;1747947;80;21840;-71
2022/12/26 11:22:50;;;;;;;3.58;2.25;;;;;;;13.50;86.70;100165.05;1732293;80;21067;-71
2022/12/26 11:25:29;;;;;;;3.67;2.08;;;;;;;13.48;86.37;100154.22;1722827;80;21011;-71
2022/12/26 11:27:58;;;;;;;3.22;1.72;;;;;;;13.46;85.41;100147.70;1738903;79;21024;-71
2022/12/26 11:30:30;;;;;;;2.77;1.90;;;;;;;13.44;85.24;100152.66;1745512;80;21135;-71
2022/12/26 11:33:17;;;;;;;3.20;1.67;;;;;;;13.44;85.38;100163.19;1732799;82;20996;-83
2022/12/26 11:35:50;;;;;;;2.47;1.50;;;;;;;13.46;85.50;100161.33;1709893;83;21064;-70
2022/12/26 11:38:37;;;;;;;2.77;1.70;;;;;;;13.50;84.90;100156.31;1711136;83;20992;-76
2022/12/26 11:41:31;;;;;;;2.90;2.33;;;;;;;13.64;85.03;100149.84;1714978;83;21688;-73
2022/12/26 11:44:12;;;;;;;2.12;1.50;;;;;;;13.69;84.34;100145.17;1709046;83;21321;-73
2022/12/26 11:46:48;;;;;;;3.22;1.70;;;;;;;13.71;84.41;100149.87;1698853;83;20995;-81
2022/12/26 11:49:42;;;;;;;2.15;1.52;;;;;;;13.69;84.09;100148.25;1682653;83;21122;-71
2022/12/26 11:52:52;;;;;;;3.87;1.60;;;;;;;13.67;83.70;100149.67;1680791;83;21039;-74
2022/12/26 11:55:28;;;;;;;;;;;;;;;13.59;83.48;100157.12;1734183;81;20992;-69
2022/12/26 11:58:11;;;;;;;2.62;1.40;;;;;;;13.52;83.60;100158.38;1768717;81;21150;-69
2022/12/26 12:00:53;;;;;;;3.37;1.82;;;;;;;13.45;83.47;100151.75;1750267;80;21027;-75
2022/12/26 12:03:46;;;;;;;4.97;1.65;;;;;;;13.39;83.40;100156.88;1732937;80;21081;-74
2022/12/26 12:06:34;;;;;;;4.40;1.72;;;;;;;13.36;83.28;100144.72;1756838;80;21474;-71
2022/12/26 12:09:26;;;;;;;4.62;1.47;;;;;;;13.37;83.20;100149.04;1760033;80;21019;-71
2022/12/26 12:12:27;;;;;;;3.22;2.27;;;;;;;13.35;82.87;100144.31;1764825;80;21311;-78
2022/12/26 12:15:00;;;;;;;;;;;;;;;13.32;82.61;100148.42;1769022;81;21020;-71
2022/12/26 12:17:51;;;;;;;2.75;1.20;;;;;;;13.24;82.41;100151.89;1766199;81;20172;-70
2022/12/26 12:20:33;;;;;;;2.12;1.50;;;;;;;13.18;82.77;100151.74;1596470;89;21055;-74
2022/12/26 12:23:43;;;;;;;2.83;1.40;;;;;;;13.14;82.80;100159.89;1600286;89;21103;-82
2022/12/26 12:26:19;;;;;;;2.70;1.27;;;;;;;13.09;82.60;100160.59;1585180;89;21160;-80
2022/12/26 12:29:23;;;;;;;2.80;1.77;;;;;;;13.01;82.49;100161.45;1574946;89;21088;-73
2022/12/26 12:32:02;;;;;;;2.52;2.17;;;;;;;12.95;82.65;100158.19;1584986;89;21051;-75
2022/12/26 12:34:52;;;;;;;3.98;1.98;;;;;;;12.92;82.74;100161.45;1577981;89;21137;-75
2022/12/26 12:37:58;;;;;;;3.87;2.12;;;;;;;12.88;82.59;100161.20;1595500;89;21136;-73
2022/12/26 12:40:47;;;;;;;4.45;2.00;;;;;;;12.86;82.90;100167.88;1607512;87;21164;-77
2022/12/26 12:43:43;;;;;;;4.20;1.55;;;;;;;12.85;82.75;100162.67;1615002;87;21032;-79
2022/12/26 12:46:40;;;;;;;3.33;1.65;;;;;;;12.83;82.77;100156.20;1605746;88;22544;-73
2022/12/26 12:49:37;;;;;;;3.83;1.75;;;;;;;12.80;82.58;100152.37;1607537;89;21479;-73
2022/12/26 12:52:45;;;;;;;3.50;1.87;;;;;;;12.77;82.51;100154.31;1600203;88;21110;-74
2022/12/26 12:55:52;;;;;;;2.95;1.77;;;;;;;12.77;82.70;100148.59;1607756;89;21189;-72
2022/12/26 12:58:52;;;;;;;3.05;1.40;;;;;;;12.78;82.75;100157.36;1539783;92;21094;-84
2022/12/26 13:01:28;;;;;;;3.40;1.82;;;;;;;12.78;82.80;100159.52;1597641;87;28718;-70
2022/12/26 13:04:07;;;;;;;3.72;1.80;;;;;;;12.78;82.79;100156.04;1577693;88;21110;-70
2022/12/26 13:06:48;;;;;;;3.92;1.82;;;;;;;12.79;82.91;100151.16;1599978;87;21067;-74
2022/12/26 13:09:27;;;;;;;3.27;1.77;;;;;;;12.77;82.89;100145.95;1599506;87;21161;-71
2022/12/26 13:12:06;;;;;;;3.15;1.80;;;;;;;12.79;82.93;100155.95;1599122;87;21114;-71
2022/12/26 13:14:41;;;;;;;5.25;1.98;;;;;;;12.79;82.67;100155.95;1600251;87;21079;-70
2022/12/26 13:17:14;;;;;;;3.83;1.95;;;;;;;12.77;82.37;100153.84;1600410;87;21516;-80
2022/12/26 13:20:01;;;;;;;4.50;1.67;;;;;;;12.69;82.39;100151.63;1598872;86;21099;-71
2022/12/26 13:25:34;;;;;;;3.60;1.90;;;;;;;12.62;82.35;100167.77;1611601;87;21058;-72
2022/12/26 13:28:08;;;;;;;2.95;1.65;;;;;;;12.54;82.52;100172.08;1609216;87;21061;-72
2022/12/26 13:30:37;;;;;;;3.45;1.72;;;;;;;12.44;82.48;100185.27;1626205;86;21574;-71
2022/12/26 13:33:05;;;;;;;3.75;1.72;;;;;;;12.29;82.50;100181.62;1626092;87;21319;-71
2022/12/26 13:35:57;;;;;;;3.25;2.05;;;;;;;12.16;82.94;100190.99;1626319;86;21105;-72
2022/12/26 13:39:02;;;;;;;4.92;2.65;;;;;;;12.01;83.30;100178.12;1632709;86;21078;-72
2022/12/26 13:44:25;;;;;;;2.35;1.37;;;;;;;11.71;84.16;100183.81;1625528;86;21616;-71
2022/12/26 13:46:56;;;;;;;3.80;1.67;;;;;;;11.63;84.56;100177.21;1626231;86;21499;-71
2022/12/26 13:49:40;;;;;;;2.92;1.87;;;;;;;11.54;84.95;100183.73;1625916;87;21109;-73
2022/12/26 13:52:18;;;;;;;3.67;1.95;;;;;;;11.48;85.28;100181.38;1625826;86;21034;-71
2022/12/26 13:54:56;;;;;;;2.30;1.65;;;;;;;11.39;85.62;100174.77;1625783;86;21069;-83
2022/12/26 13:57:40;;;;;;;2.85;1.60;;;;;;;11.27;85.79;100177.45;1616962;86;21121;-80
2022/12/26 14:00:44;;;;;;;2.80;1.45;;;;;;;11.14;86.32;100173.21;1615934;86;21519;-74
2022/12/26 14:03:21;;;;;;;4.40;2.98;;;;;;;11.04;86.93;100167.11;1615867;86;21247;-76
2022/12/26 14:06:24;;;;;;;4.92;2.10;;;;;;;10.93;87.35;100165.78;1621520;86;20950;-76
2022/12/26 14:09:23;;;;;;;4.65;2.33;;;;;;;10.88;87.70;100167.73;1621885;86;21096;-78
2022/12/26 14:12:12;;;;;;;4.53;2.58;;;;;;;10.83;88.08;100176.25;1622625;86;21065;-71